Airfield :
LOGIN :

Register | Disclaimer

   EN    FR    IT 

 










Legend :    VFR   Marginal VFR   IFR   Intensive IFR   Very Intensive IFR
Visi :
Ceiling :
>= 8 km
>= 3000ft
5 to 8 km
1000 to 3000 ft
1500m to 5 km
500 to 1000 ft
800 to 1500m
200 to 500 ft
< 800m
< 200 ft
Symbols :   Thunderstorms  Fog  Heavy snow  Heavy precipitations  Wind > 20 kt
SIGMETs :     Misc.  Thunderstorms  Icing  Turbulence  Mountain Waves  Volcanic Ashes






- Airport Elevation : 1046 ft
- IATA code : FDE


ENBL - Bringeland

CURRENT METAR :
  • 091450Z 33007KT 9999 VCSH FEW002 SCT008 BKN015 M01/M02 Q0996 RESN

EXPIRED METARs :
  • 091420Z 29004KT 2500 -SHSN VV012 M01/M02 Q0995
  • 091350Z 31010KT 5000 -SHSN FEW003 SCT008 BKN015 M01/M02 Q0994
  • 091320Z 32007KT 270V010 2000 SHSN FEW/// SCT010 BKN015 M00/M02 Q0994
  • 091250Z 31008KT 280V350 8000 VCSH FEW/// SCT014 BKN030 M00/M02 Q0992
  • 091220Z 33010KT 290V360 5000 2000W -SHSN FEW007 SCT020 M00/M02 Q0992
  • 091150Z 33011KT 7000 3500W -SHSN FEW007 SCT020 M00/M02 Q0991

TAF N/A



MET'MAP, your aeronautical weather chart ! - Copyright ORBIFLY December 2007 - Disclaimer

ORBIFLY MET'MAP TEAM :

Programming & Development : Alexandra Zaïnal
Concept & original design : Baudouin d'Aumeries
Assistance for programming : Marc-Olivier Méhu
Technical & hardware support : Manuel Goepfert

Contact : metmap@orbifly.com




SOURCES & CREDITS :

   NOAA